createdAt,value
2023-03-10T00:01:34.295Z,8.30
2023-03-10T00:03:07.015Z,8.30
2023-03-10T00:04:40.310Z,8.30
2023-03-10T00:06:18.382Z,8.40
2023-03-10T00:07:50.846Z,8.40
2023-03-10T00:09:24.042Z,8.40
2023-03-10T00:10:57.362Z,8.40
2023-03-10T00:12:30.569Z,8.40
2023-03-10T00:14:03.958Z,8.40
2023-03-10T00:15:39.301Z,8.40
2023-03-10T00:17:12.530Z,8.40
2023-03-10T00:18:46.201Z,8.40
2023-03-10T00:20:18.579Z,8.40
2023-03-10T00:21:51.759Z,8.40
2023-03-10T00:23:25.011Z,8.50
2023-03-10T00:24:58.515Z,8.50
2023-03-10T00:26:32.078Z,8.50
2023-03-10T00:28:05.423Z,8.50
2023-03-10T00:29:38.523Z,8.50
2023-03-10T00:31:16.590Z,8.50
2023-03-10T00:32:50.926Z,8.50
2023-03-10T00:34:24.150Z,8.50
2023-03-10T00:36:08.405Z,8.60
2023-03-10T00:37:41.709Z,8.60
2023-03-10T00:39:14.819Z,8.60
2023-03-10T00:40:47.972Z,8.60
2023-03-10T00:42:21.980Z,8.60
2023-03-10T00:43:55.721Z,8.60
2023-03-10T00:45:28.907Z,8.60
2023-03-10T00:47:04.237Z,8.60
2023-03-10T00:48:38.365Z,8.70
2023-03-10T00:50:13.183Z,8.70
2023-03-10T00:51:46.320Z,8.70
2023-03-10T00:53:20.127Z,8.70
2023-03-10T00:54:53.917Z,8.70
2023-03-10T00:56:27.542Z,8.70
2023-03-10T00:58:00.623Z,8.70
2023-03-10T00:59:47.822Z,8.70
2023-03-10T01:01:26.824Z,8.70
2023-03-10T01:03:01.408Z,8.80
2023-03-10T01:04:34.641Z,8.80
2023-03-10T01:06:07.172Z,8.80
2023-03-10T01:07:40.492Z,8.80
2023-03-10T01:09:14.122Z,8.80
2023-03-10T01:10:48.159Z,8.80
2023-03-10T01:12:22.577Z,8.80
2023-03-10T01:14:00.035Z,8.80
2023-03-10T01:15:33.296Z,8.80
2023-03-10T01:17:06.723Z,8.80
2023-03-10T01:18:41.482Z,8.80
2023-03-10T01:20:16.893Z,8.80
2023-03-10T01:21:50.019Z,8.90
2023-03-10T01:23:28.986Z,8.90
2023-03-10T01:25:03.316Z,8.90
2023-03-10T01:26:37.092Z,8.90
2023-03-10T01:28:09.394Z,8.90
2023-03-10T01:29:43.678Z,8.90
2023-03-10T01:31:18.462Z,8.90
2023-03-10T01:32:51.714Z,8.90
2023-03-10T01:34:26.260Z,8.90
2023-03-10T01:36:00.064Z,9.00
2023-03-10T01:37:33.668Z,9.00
2023-03-10T01:39:07.450Z,9.00
2023-03-10T01:40:40.762Z,9.00
2023-03-10T01:42:14.098Z,9.00
2023-03-10T01:43:50.043Z,9.00
2023-03-10T01:46:30.420Z,9.00
2023-03-10T01:48:07.582Z,9.00
2023-03-10T01:49:45.146Z,9.00
2023-03-10T01:51:18.847Z,9.00
2023-03-10T01:52:58.228Z,9.00
2023-03-10T01:54:43.938Z,9.00
2023-03-10T01:56:17.454Z,9.00
2023-03-10T01:57:55.553Z,9.10
2023-03-10T01:59:30.064Z,9.10
2023-03-10T02:01:02.834Z,9.10
2023-03-10T02:02:41.653Z,9.10
2023-03-10T02:04:30.949Z,9.10
2023-03-10T02:06:11.053Z,9.10
2023-03-10T02:07:45.398Z,9.10
2023-03-10T02:09:20.809Z,9.10
2023-03-10T02:10:54.384Z,9.10
2023-03-10T02:12:28.595Z,9.10
2023-03-10T02:14:06.396Z,9.10
2023-03-10T02:15:42.643Z,9.10
2023-03-10T02:17:20.719Z,9.10
2023-03-10T02:18:54.066Z,9.10
2023-03-10T02:20:38.281Z,9.20
2023-03-10T02:22:15.539Z,9.20
2023-03-10T02:24:01.338Z,9.20
2023-03-10T02:25:46.969Z,9.20
2023-03-10T02:27:25.429Z,9.20
2023-03-10T02:29:03.195Z,9.20
2023-03-10T02:30:41.116Z,9.20
2023-03-10T02:32:16.669Z,9.20
2023-03-10T02:33:52.613Z,9.20
2023-03-10T02:35:26.002Z,9.20
2023-03-10T02:37:03.770Z,9.20
2023-03-10T02:38:37.101Z,9.20
2023-03-10T02:40:37.575Z,9.20
2023-03-10T02:42:25.378Z,9.20
2023-03-10T02:44:03.696Z,9.30
2023-03-10T02:45:41.619Z,9.30
2023-03-10T02:47:15.993Z,9.30
2023-03-10T02:48:48.380Z,9.30
2023-03-10T02:50:31.235Z,9.30
2023-03-10T02:52:10.858Z,9.30
2023-03-10T02:53:44.668Z,9.30
2023-03-10T02:55:18.583Z,9.30
2023-03-10T02:56:52.329Z,9.30
2023-03-10T02:58:32.401Z,9.30
2023-03-10T03:00:09.245Z,9.30
2023-03-10T03:01:42.381Z,9.30
2023-03-10T03:03:17.976Z,9.30
2023-03-10T03:04:52.357Z,9.30
2023-03-10T03:06:26.435Z,9.30
2023-03-10T03:07:59.591Z,9.30
2023-03-10T03:09:32.977Z,9.30
2023-03-10T03:11:05.819Z,9.30
2023-03-10T03:12:39.441Z,9.20
2023-03-10T03:14:14.255Z,9.30
2023-03-10T03:15:48.647Z,9.40
2023-03-10T03:17:21.880Z,9.20
2023-03-10T03:18:55.056Z,9.20
2023-03-10T03:20:31.291Z,9.20
2023-03-10T03:22:04.495Z,9.20
2023-03-10T03:23:37.975Z,9.20
2023-03-10T03:25:16.202Z,9.20
2023-03-10T03:26:49.615Z,9.20
2023-03-10T03:28:25.790Z,9.20
2023-03-10T03:30:00.899Z,9.20
2023-03-10T03:31:34.514Z,9.20
2023-03-10T03:33:15.618Z,9.20
2023-03-10T03:34:49.764Z,9.20
2023-03-10T03:36:23.118Z,9.20
2023-03-10T03:37:58.054Z,9.20
2023-03-10T03:39:31.660Z,9.20
2023-03-10T03:41:09.012Z,9.20
2023-03-10T03:42:47.042Z,9.20
2023-03-10T03:44:19.429Z,9.20
2023-03-10T03:45:54.470Z,9.20
2023-03-10T03:47:27.680Z,9.20
2023-03-10T03:49:01.184Z,9.20
2023-03-10T03:50:34.787Z,9.20
2023-03-10T03:52:14.100Z,9.10
2023-03-10T03:53:47.551Z,9.10
2023-03-10T03:55:21.458Z,9.10
2023-03-10T03:56:57.371Z,9.10
2023-03-10T03:58:30.487Z,9.10
2023-03-10T04:00:07.626Z,9.10
2023-03-10T04:01:47.224Z,9.10
2023-03-10T04:03:20.740Z,9.10
2023-03-10T04:04:55.606Z,9.10
2023-03-10T04:06:29.154Z,9.10
2023-03-10T04:08:02.640Z,9.10
2023-03-10T04:09:39.146Z,9.10
2023-03-10T04:11:12.381Z,9.10
2023-03-10T04:12:48.452Z,9.10
2023-03-10T04:14:21.762Z,9.10
2023-03-10T04:15:59.380Z,9.10
2023-03-10T04:17:39.735Z,9.10
2023-03-10T04:19:13.483Z,9.10
2023-03-10T04:20:50.355Z,9.10
2023-03-10T04:22:25.395Z,9.10
2023-03-10T04:23:59.099Z,9.10
2023-03-10T04:25:36.238Z,9.10
2023-03-10T04:27:11.368Z,9.10
2023-03-10T04:28:44.000Z,9.10
2023-03-10T04:30:19.145Z,9.00
2023-03-10T04:32:05.232Z,9.10
2023-03-10T04:33:42.864Z,9.00
2023-03-10T04:35:16.062Z,9.10
2023-03-10T04:36:49.121Z,9.10
2023-03-10T04:38:23.932Z,9.10
2023-03-10T04:39:57.273Z,9.10
2023-03-10T04:41:30.422Z,9.10
2023-03-10T04:43:04.752Z,9.00
2023-03-10T04:44:38.240Z,9.00
2023-03-10T04:46:13.254Z,9.00
2023-03-10T04:47:47.716Z,9.00
2023-03-10T04:49:22.531Z,9.00
2023-03-10T04:51:01.206Z,9.00
2023-03-10T04:52:38.052Z,9.00
2023-03-10T04:54:11.584Z,9.00
2023-03-10T04:55:45.925Z,9.00
2023-03-10T04:57:19.271Z,9.00
2023-03-10T04:58:52.475Z,9.10
2023-03-10T05:00:26.071Z,9.00
2023-03-10T05:01:58.871Z,8.90
2023-03-10T05:03:32.104Z,9.00
2023-03-10T05:05:07.941Z,8.90
2023-03-10T05:06:42.468Z,8.90
2023-03-10T05:08:37.587Z,8.90
2023-03-10T05:10:13.029Z,8.90
2023-03-10T05:11:46.257Z,8.90
2023-03-10T05:13:19.969Z,8.90
2023-03-10T05:14:53.043Z,8.90
2023-03-10T05:16:26.737Z,8.90
2023-03-10T05:18:00.292Z,8.80
2023-03-10T05:19:35.834Z,8.90
2023-03-10T05:21:12.161Z,8.80
2023-03-10T05:22:46.141Z,8.80
2023-03-10T05:24:19.245Z,8.80
2023-03-10T05:25:52.595Z,8.80
2023-03-10T05:27:27.230Z,8.80
2023-03-10T05:29:01.679Z,8.70
2023-03-10T05:30:45.611Z,8.70
2023-03-10T05:32:21.503Z,8.70
2023-03-10T05:33:56.551Z,8.70
2023-03-10T05:35:30.264Z,8.70
2023-03-10T05:37:06.028Z,8.60
2023-03-10T05:38:39.849Z,8.60
2023-03-10T05:40:19.596Z,8.60
2023-03-10T05:41:53.460Z,8.60
2023-03-10T05:43:27.980Z,8.60
2023-03-10T05:45:01.312Z,8.60
2023-03-10T05:46:34.635Z,8.50
2023-03-10T05:48:08.492Z,8.50
2023-03-10T05:49:42.022Z,8.50
2023-03-10T05:51:15.385Z,8.50
2023-03-10T05:52:52.663Z,8.60
2023-03-10T05:54:27.217Z,8.50
2023-03-10T05:56:00.793Z,8.50
2023-03-10T05:57:33.971Z,8.50
2023-03-10T05:59:07.760Z,8.50
2023-03-10T06:00:42.544Z,8.50
2023-03-10T06:02:15.599Z,8.50
2023-03-10T06:03:48.922Z,8.40
2023-03-10T06:05:22.126Z,8.40
2023-03-10T06:06:56.614Z,8.40
2023-03-10T06:08:32.026Z,8.40
2023-03-10T06:10:05.775Z,8.40
2023-03-10T06:11:38.947Z,8.40
2023-03-10T06:13:12.274Z,8.40
2023-03-10T06:14:45.471Z,8.40
2023-03-10T06:16:19.291Z,8.40
2023-03-10T06:17:52.492Z,8.40
2023-03-10T06:19:26.372Z,8.40
2023-03-10T06:20:59.528Z,8.40
2023-03-10T06:22:32.647Z,8.40
2023-03-10T06:24:07.559Z,8.40
2023-03-10T06:25:40.913Z,8.30
2023-03-10T06:27:14.059Z,8.30
2023-03-10T06:28:48.173Z,8.30
2023-03-10T06:30:21.821Z,8.30
2023-03-10T06:31:55.112Z,8.30
2023-03-10T06:33:29.925Z,8.30
2023-03-10T06:35:03.040Z,8.30
2023-03-10T06:36:37.372Z,8.30
2023-03-10T06:38:10.743Z,8.30
2023-03-10T06:39:45.174Z,8.30
2023-03-10T06:41:18.798Z,8.30
2023-03-10T06:42:51.907Z,8.30
2023-03-10T06:44:25.031Z,8.30
2023-03-10T06:45:58.410Z,8.40
2023-03-10T06:47:31.631Z,8.30
2023-03-10T06:49:05.045Z,8.30
2023-03-10T06:50:42.080Z,8.30
2023-03-10T06:52:15.574Z,8.30
2023-03-10T06:53:50.098Z,8.30
2023-03-10T06:55:24.755Z,8.30
2023-03-10T06:56:58.009Z,8.30
2023-03-10T06:58:32.772Z,8.40
2023-03-10T07:00:11.283Z,8.30
2023-03-10T07:01:44.573Z,8.30
2023-03-10T07:03:18.420Z,8.30
2023-03-10T07:04:51.668Z,8.30
2023-03-10T07:06:26.210Z,8.30
2023-03-10T07:07:59.290Z,8.30
2023-03-10T07:09:32.501Z,8.30
2023-03-10T07:11:07.036Z,8.30
2023-03-10T07:12:40.248Z,8.30
2023-03-10T07:14:13.317Z,8.30
2023-03-10T07:15:47.485Z,8.40
2023-03-10T07:17:20.598Z,8.30
2023-03-10T07:18:53.782Z,8.30
2023-03-10T07:20:26.936Z,8.30
2023-03-10T07:22:00.101Z,8.30
2023-03-10T07:23:34.024Z,8.40
2023-03-10T07:25:08.460Z,8.40
2023-03-10T07:26:43.215Z,8.40
2023-03-10T07:28:16.364Z,8.40
2023-03-10T07:29:49.840Z,8.40
2023-03-10T07:31:23.379Z,8.40
2023-03-10T07:32:56.609Z,8.40
2023-03-10T07:34:29.968Z,8.40
2023-03-10T07:36:07.540Z,8.40
2023-03-10T07:37:41.735Z,8.50
2023-03-10T07:39:14.957Z,8.50
2023-03-10T07:40:48.075Z,8.60
2023-03-10T07:42:22.746Z,8.50
2023-03-10T07:43:56.211Z,8.50
2023-03-10T07:45:30.850Z,8.50
2023-03-10T07:47:04.234Z,8.60
2023-03-10T07:48:37.504Z,8.60
2023-03-10T07:50:12.496Z,8.60
2023-03-10T07:51:45.566Z,8.60
2023-03-10T07:53:18.726Z,8.70
2023-03-10T07:54:52.007Z,8.60
2023-03-10T07:56:25.394Z,8.70
2023-03-10T07:58:01.122Z,8.70
2023-03-10T07:59:34.518Z,8.70
2023-03-10T08:01:10.018Z,8.70
2023-03-10T08:02:44.006Z,8.70
2023-03-10T08:04:17.398Z,8.70
2023-03-10T08:05:51.261Z,8.70
2023-03-10T08:07:27.457Z,8.70
2023-03-10T08:09:00.609Z,8.70
2023-03-10T08:10:33.816Z,8.70
2023-03-10T08:12:08.493Z,8.80
2023-03-10T08:13:45.274Z,8.80
2023-03-10T08:15:18.833Z,8.80
2023-03-10T08:16:52.783Z,8.80
2023-03-10T08:18:26.116Z,8.80
2023-03-10T08:19:59.257Z,8.90
2023-03-10T08:21:32.323Z,8.90
2023-03-10T08:23:05.467Z,8.90
2023-03-10T08:24:39.375Z,8.90
2023-03-10T08:26:16.918Z,8.90
2023-03-10T08:27:51.149Z,9.00
2023-03-10T08:29:26.000Z,9.00
2023-03-10T08:31:05.385Z,9.00
2023-03-10T08:32:38.695Z,9.00
2023-03-10T08:34:11.830Z,9.00
2023-03-10T08:35:45.194Z,9.10
2023-03-10T08:37:18.735Z,9.10
2023-03-10T08:38:54.048Z,9.10
2023-03-10T08:40:27.746Z,9.10
2023-03-10T08:42:00.876Z,9.20
2023-03-10T08:43:34.377Z,9.20
2023-03-10T08:45:09.776Z,9.20
2023-03-10T08:46:46.637Z,9.20
2023-03-10T08:48:19.951Z,9.30
2023-03-10T08:49:53.081Z,9.30
2023-03-10T08:51:27.572Z,9.30
2023-03-10T08:53:00.754Z,9.30
2023-03-10T08:54:33.908Z,9.40
2023-03-10T08:56:08.292Z,9.40
2023-03-10T08:57:41.501Z,9.40
2023-03-10T08:59:14.935Z,9.40
2023-03-10T09:00:49.493Z,9.40
2023-03-10T09:02:23.028Z,9.50
2023-03-10T09:03:56.835Z,9.50
2023-03-10T09:05:30.060Z,9.50
2023-03-10T09:07:03.155Z,9.60
2023-03-10T09:08:36.531Z,9.50
2023-03-10T09:10:10.727Z,9.50
2023-03-10T09:11:44.937Z,9.60
2023-03-10T09:13:18.072Z,9.60
2023-03-10T09:14:51.464Z,9.60
2023-03-10T09:16:28.449Z,9.60
2023-03-10T09:18:02.136Z,9.70
2023-03-10T09:19:35.568Z,9.60
2023-03-10T09:21:09.862Z,9.70
2023-03-10T09:22:43.485Z,9.70
2023-03-10T09:24:17.931Z,9.70
2023-03-10T09:25:51.004Z,9.70
2023-03-10T09:27:24.356Z,9.70
2023-03-10T09:28:57.550Z,9.70
2023-03-10T09:30:31.000Z,9.70
2023-03-10T09:32:08.644Z,9.80
2023-03-10T09:33:42.008Z,9.80
2023-03-10T09:35:15.202Z,9.80
2023-03-10T09:36:48.402Z,9.80
2023-03-10T09:38:21.813Z,9.80
2023-03-10T09:39:54.945Z,9.80
2023-03-10T09:42:01.705Z,9.80
2023-03-10T09:43:40.858Z,9.80
2023-03-10T09:45:39.352Z,9.90
2023-03-10T09:47:42.467Z,9.90
2023-03-10T09:49:22.150Z,9.90
2023-03-10T09:50:56.711Z,9.90
2023-03-10T09:52:42.466Z,10.00
2023-03-10T09:54:33.901Z,9.90
2023-03-10T09:56:13.578Z,9.90
2023-03-10T09:57:50.750Z,10.00
2023-03-10T09:59:33.146Z,10.00
2023-03-10T10:01:15.845Z,10.00
2023-03-10T10:02:59.085Z,10.00
2023-03-10T10:04:40.398Z,10.10
2023-03-10T10:06:21.047Z,10.10
2023-03-10T10:07:57.828Z,10.10
2023-03-10T10:09:43.048Z,10.10
2023-03-10T10:11:19.473Z,10.10
2023-03-10T10:12:55.499Z,10.20
2023-03-10T10:14:31.647Z,10.20
2023-03-10T10:16:28.214Z,10.20
2023-03-10T10:18:20.191Z,10.30
2023-03-10T10:19:57.788Z,10.30
2023-03-10T10:21:43.278Z,10.30
2023-03-10T10:23:22.184Z,10.30
2023-03-10T10:25:17.529Z,10.40
2023-03-10T10:26:51.074Z,10.40
2023-03-10T10:28:37.766Z,10.40
2023-03-10T10:30:32.691Z,10.50
2023-03-10T10:32:09.776Z,10.50
2023-03-10T10:34:00.223Z,10.50
2023-03-10T10:35:36.817Z,10.50
2023-03-10T10:37:28.193Z,10.60
2023-03-10T10:39:02.376Z,10.60
2023-03-10T10:40:48.537Z,10.60
2023-03-10T10:42:25.679Z,10.60
2023-03-10T10:44:09.410Z,10.70
2023-03-10T10:45:42.687Z,10.70
2023-03-10T10:47:31.612Z,10.70
2023-03-10T10:49:19.104Z,10.70
2023-03-10T10:50:54.914Z,10.70
2023-03-10T10:52:28.108Z,10.80
2023-03-10T10:54:04.914Z,10.80
2023-03-10T10:55:38.258Z,10.80
2023-03-10T10:57:20.847Z,10.80
2023-03-10T10:59:08.427Z,10.90
2023-03-10T11:00:41.965Z,10.90
2023-03-10T11:02:30.999Z,10.90
2023-03-10T11:04:09.072Z,11.00
2023-03-10T11:05:42.642Z,11.00
2023-03-10T11:07:25.954Z,11.00
2023-03-10T11:09:08.904Z,11.10
2023-03-10T11:10:43.555Z,11.10
2023-03-10T11:12:22.704Z,11.10
2023-03-10T11:14:13.779Z,11.10
2023-03-10T11:15:59.734Z,11.20
2023-03-10T11:17:41.416Z,11.20
2023-03-10T11:19:29.421Z,11.20
2023-03-10T11:21:13.420Z,11.30
2023-03-10T11:22:52.717Z,11.30
2023-03-10T11:24:36.027Z,11.40
2023-03-10T11:26:35.605Z,11.40
2023-03-10T11:28:39.952Z,11.50
2023-03-10T11:30:21.024Z,11.50
2023-03-10T11:32:06.933Z,11.60
2023-03-10T11:33:51.881Z,11.60
2023-03-10T11:35:33.614Z,11.60
2023-03-10T11:37:18.442Z,11.70
2023-03-10T11:38:59.575Z,11.70
2023-03-10T11:40:47.720Z,11.70
2023-03-10T11:42:32.414Z,11.80
2023-03-10T11:44:17.025Z,11.80
2023-03-10T11:45:54.254Z,11.80
2023-03-10T11:47:57.667Z,11.90
2023-03-10T11:49:38.149Z,11.90
2023-03-10T11:51:19.248Z,11.90
2023-03-10T11:53:00.766Z,12.00
2023-03-10T11:54:39.502Z,11.90
2023-03-10T11:56:16.529Z,12.00
2023-03-10T11:57:57.107Z,12.00
2023-03-10T11:59:36.281Z,12.00
2023-03-10T12:01:12.980Z,12.10
2023-03-10T12:03:05.120Z,12.10
2023-03-10T12:04:46.179Z,12.10
2023-03-10T12:06:27.979Z,12.10
2023-03-10T12:08:06.505Z,12.10
2023-03-10T12:09:46.355Z,12.20
2023-03-10T12:11:23.664Z,12.10
2023-03-10T12:12:58.364Z,12.20
2023-03-10T12:14:32.552Z,12.10
2023-03-10T12:16:08.458Z,12.10
2023-03-10T12:17:42.656Z,12.10
2023-03-10T12:19:15.744Z,12.10
2023-03-10T12:21:21.454Z,12.00
2023-03-10T12:22:56.145Z,12.00
2023-03-10T12:24:46.901Z,12.00
2023-03-10T12:27:05.092Z,11.90
2023-03-10T12:28:38.310Z,11.80
2023-03-10T12:30:45.621Z,11.80
2023-03-10T12:32:42.421Z,11.70
2023-03-10T12:34:22.143Z,11.60
2023-03-10T12:36:02.272Z,11.60
2023-03-10T12:37:36.764Z,11.50
2023-03-10T12:39:38.748Z,11.50
2023-03-10T12:41:13.689Z,11.40
2023-03-10T12:42:47.267Z,11.30
2023-03-10T12:44:50.513Z,11.30
2023-03-10T12:46:40.154Z,11.20
2023-03-10T12:48:22.146Z,11.20
2023-03-10T12:50:02.548Z,11.20
2023-03-10T12:51:42.889Z,11.20
2023-03-10T12:53:38.856Z,11.10
2023-03-10T12:55:24.092Z,11.10
2023-03-10T12:57:10.736Z,11.00
2023-03-10T12:58:49.053Z,11.10
2023-03-10T13:00:49.260Z,11.00
2023-03-10T13:02:33.932Z,11.00
2023-03-10T13:04:09.344Z,11.00
2023-03-10T13:05:57.744Z,10.90
2023-03-10T13:07:32.300Z,10.90
2023-03-10T13:09:24.127Z,10.90
2023-03-10T13:11:00.281Z,10.80
2023-03-10T13:12:50.229Z,10.80
2023-03-10T13:14:25.412Z,10.80
2023-03-10T13:16:00.420Z,10.80
2023-03-10T13:17:34.054Z,10.80
2023-03-10T13:19:07.560Z,10.80
2023-03-10T13:20:40.701Z,10.70
2023-03-10T13:22:18.449Z,10.70
2023-03-10T13:23:51.568Z,10.60
2023-03-10T13:25:27.147Z,10.70
2023-03-10T13:27:06.503Z,10.70
2023-03-10T13:28:40.037Z,10.70
2023-03-10T13:30:19.896Z,10.70
2023-03-10T13:31:55.301Z,10.70
2023-03-10T13:33:28.652Z,10.70
2023-03-10T13:35:22.722Z,10.60
2023-03-10T13:37:05.770Z,10.70
2023-03-10T13:38:43.427Z,10.60
2023-03-10T13:40:19.073Z,10.60
2023-03-10T13:41:57.546Z,10.60
2023-03-10T13:43:38.458Z,10.60
2023-03-10T13:45:23.436Z,10.60
2023-03-10T13:47:00.580Z,10.60
2023-03-10T13:48:35.105Z,10.60
2023-03-10T13:50:16.672Z,10.60
2023-03-10T13:51:58.165Z,10.60
2023-03-10T13:53:31.347Z,10.60
2023-03-10T13:55:14.945Z,10.60
2023-03-10T13:56:49.782Z,10.60
2023-03-10T13:58:25.407Z,10.60
2023-03-10T14:00:00.242Z,10.60
2023-03-10T14:01:38.114Z,10.60
2023-03-10T14:03:11.539Z,10.50
2023-03-10T14:04:49.602Z,10.50
2023-03-10T14:06:23.423Z,10.50
2023-03-10T14:08:02.295Z,10.50
2023-03-10T14:09:35.530Z,10.50
2023-03-10T14:11:36.253Z,10.50
2023-03-10T14:13:44.567Z,10.40
2023-03-10T14:15:27.203Z,10.40
2023-03-10T14:17:02.567Z,10.40
2023-03-10T14:18:37.749Z,10.40
2023-03-10T14:20:12.658Z,10.30
2023-03-10T14:21:59.955Z,10.30
2023-03-10T14:23:37.960Z,10.30
2023-03-10T14:25:18.009Z,10.30
2023-03-10T14:26:51.259Z,10.30
2023-03-10T14:28:28.758Z,10.30
2023-03-10T14:30:18.457Z,10.20
2023-03-10T14:31:52.267Z,10.20
2023-03-10T14:33:25.563Z,10.20
2023-03-10T14:34:58.736Z,10.20
2023-03-10T14:36:31.944Z,10.20
2023-03-10T14:38:05.167Z,10.20
2023-03-10T14:39:38.328Z,10.10
2023-03-10T14:41:13.868Z,10.10
2023-03-10T14:42:48.752Z,10.20
2023-03-10T14:44:21.725Z,10.10
2023-03-10T14:46:00.017Z,10.10
2023-03-10T14:47:34.220Z,10.10
2023-03-10T14:49:14.068Z,10.10
2023-03-10T14:50:48.827Z,10.10
2023-03-10T14:52:22.070Z,10.10
2023-03-10T14:53:55.170Z,10.20
2023-03-10T14:55:29.618Z,10.10
2023-03-10T14:57:02.850Z,10.00
2023-03-10T14:58:45.649Z,10.00
2023-03-10T15:00:22.846Z,10.00
2023-03-10T15:01:58.888Z,9.90
2023-03-10T15:03:32.111Z,9.90
2023-03-10T15:05:06.166Z,9.90
2023-03-10T15:06:39.297Z,9.80
2023-03-10T15:08:12.425Z,9.80
2023-03-10T15:09:46.047Z,9.70
2023-03-10T15:11:35.697Z,9.60
2023-03-10T15:13:13.473Z,9.50
2023-03-10T15:14:54.384Z,9.50
2023-03-10T15:16:27.540Z,9.40
2023-03-10T15:18:02.069Z,9.30
2023-03-10T15:19:35.788Z,9.20
2023-03-10T15:21:09.097Z,9.10
2023-03-10T15:22:42.172Z,9.00
2023-03-10T15:24:15.332Z,8.90
2023-03-10T15:25:49.143Z,8.90
2023-03-10T15:27:22.269Z,8.70
2023-03-10T15:28:55.354Z,8.70
2023-03-10T15:30:31.417Z,8.60
2023-03-10T15:32:04.574Z,8.50
2023-03-10T15:33:39.181Z,8.50
2023-03-10T15:35:12.787Z,8.40
2023-03-10T15:36:45.914Z,8.30
2023-03-10T15:38:19.071Z,8.30
2023-03-10T15:39:52.268Z,8.20
2023-03-10T15:41:26.010Z,8.20
2023-03-10T15:43:00.685Z,8.10
2023-03-10T15:44:33.765Z,8.10
2023-03-10T15:46:09.450Z,8.00
2023-03-10T15:47:42.972Z,8.00
2023-03-10T15:49:17.676Z,8.00
2023-03-10T15:50:50.753Z,7.90
2023-03-10T15:52:24.261Z,7.80
2023-03-10T15:53:57.640Z,7.90
2023-03-10T15:55:30.774Z,7.70
2023-03-10T15:57:03.875Z,7.70
2023-03-10T15:58:37.700Z,7.60
2023-03-10T16:00:12.778Z,7.60
2023-03-10T16:01:46.072Z,7.50
2023-03-10T16:03:19.284Z,7.40
2023-03-10T16:04:53.839Z,7.40
2023-03-10T16:06:27.716Z,7.40
2023-03-10T16:08:00.832Z,7.30
2023-03-10T16:09:34.813Z,7.30
2023-03-10T16:11:16.007Z,7.30
2023-03-10T16:12:49.365Z,7.20
2023-03-10T16:14:22.828Z,7.20
2023-03-10T16:15:59.837Z,7.20
2023-03-10T16:17:33.089Z,7.10
2023-03-10T16:19:06.223Z,7.10
2023-03-10T16:20:40.771Z,7.10
2023-03-10T16:22:19.303Z,7.10
2023-03-10T16:23:55.981Z,7.10
2023-03-10T16:25:44.408Z,7.10
2023-03-10T16:27:32.842Z,7.10
2023-03-10T16:29:06.624Z,7.00
2023-03-10T16:30:40.253Z,7.00
2023-03-10T16:32:19.867Z,7.00
2023-03-10T16:34:01.404Z,7.00
2023-03-10T16:35:40.782Z,6.90
2023-03-10T16:37:13.982Z,7.00
2023-03-10T16:38:47.620Z,6.90
2023-03-10T16:40:21.041Z,6.90
2023-03-10T16:41:54.141Z,6.90
2023-03-10T16:43:31.131Z,6.80
2023-03-10T16:45:06.551Z,6.80
2023-03-10T16:46:40.592Z,6.80
2023-03-10T16:48:13.764Z,6.80
2023-03-10T16:49:47.095Z,6.80
2023-03-10T16:51:27.429Z,6.80
2023-03-10T16:53:00.647Z,6.70
2023-03-10T16:54:33.719Z,6.70
2023-03-10T16:56:08.098Z,6.70
2023-03-10T16:57:41.159Z,6.70
2023-03-10T16:59:19.620Z,6.70
2023-03-10T17:00:52.858Z,6.70
2023-03-10T17:02:31.544Z,6.60
2023-03-10T17:04:04.696Z,6.70
2023-03-10T17:05:39.094Z,6.60
2023-03-10T17:07:14.181Z,6.60
2023-03-10T17:08:47.567Z,6.60
2023-03-10T17:10:20.786Z,6.60
2023-03-10T17:11:55.482Z,6.60
2023-03-10T17:13:28.708Z,6.60
2023-03-10T17:15:02.043Z,6.60
2023-03-10T17:16:37.094Z,6.60
2023-03-10T17:18:10.610Z,6.50
2023-03-10T17:19:43.792Z,6.50
2023-03-10T17:21:20.524Z,6.40
2023-03-10T17:22:55.042Z,6.40
2023-03-10T17:24:28.564Z,6.30
2023-03-10T17:26:01.645Z,6.30
2023-03-10T17:27:35.032Z,6.20
2023-03-10T17:29:08.312Z,6.10
2023-03-10T17:30:42.011Z,6.10
2023-03-10T17:32:15.720Z,6.00
2023-03-10T17:33:49.044Z,5.90
2023-03-10T17:35:22.204Z,5.90
2023-03-10T17:36:55.306Z,5.80
2023-03-10T17:38:29.712Z,5.80
2023-03-10T17:40:02.996Z,5.70
2023-03-10T17:41:37.728Z,5.60
2023-03-10T17:43:23.280Z,5.50
2023-03-10T17:45:06.851Z,5.50
2023-03-10T17:46:41.785Z,5.40
2023-03-10T17:48:14.873Z,5.40
2023-03-10T17:49:48.270Z,5.30
2023-03-10T17:51:24.878Z,5.20
2023-03-10T17:52:57.923Z,5.10
2023-03-10T17:54:32.967Z,5.00
2023-03-10T17:56:07.698Z,4.90
2023-03-10T17:57:41.163Z,4.90
2023-03-10T17:59:16.061Z,4.80
2023-03-10T18:00:50.016Z,4.70
2023-03-10T18:02:23.253Z,4.60
2023-03-10T18:03:57.632Z,4.60
2023-03-10T18:05:30.758Z,4.50
2023-03-10T18:07:03.983Z,4.40
2023-03-10T18:08:37.086Z,4.40
2023-03-10T18:10:12.788Z,4.30
2023-03-10T18:11:45.851Z,4.20
2023-03-10T18:13:19.031Z,4.20
2023-03-10T18:14:52.302Z,4.10
2023-03-10T18:16:27.907Z,4.00
2023-03-10T18:18:01.463Z,4.00
2023-03-10T18:19:34.533Z,3.90
2023-03-10T18:21:09.884Z,3.90
2023-03-10T18:22:42.929Z,3.80
2023-03-10T18:24:16.851Z,3.80
2023-03-10T18:25:52.319Z,3.70
2023-03-10T18:27:25.568Z,3.60
2023-03-10T18:28:59.355Z,3.60
2023-03-10T18:30:32.499Z,3.50
2023-03-10T18:32:06.165Z,3.50
2023-03-10T18:33:39.380Z,3.40
2023-03-10T18:35:12.927Z,3.40
2023-03-10T18:36:46.081Z,3.40
2023-03-10T18:38:21.047Z,3.40
2023-03-10T18:39:54.103Z,3.30
2023-03-10T18:41:32.569Z,3.30
2023-03-10T18:43:05.920Z,3.20
2023-03-10T18:44:39.535Z,3.20
2023-03-10T18:46:12.740Z,3.20
2023-03-10T18:47:46.955Z,3.10
2023-03-10T18:49:20.145Z,3.10
2023-03-10T18:50:53.861Z,3.00
2023-03-10T18:52:27.066Z,3.00
2023-03-10T18:54:00.353Z,2.90
2023-03-10T18:55:33.529Z,2.90
2023-03-10T18:57:07.973Z,2.80
2023-03-10T18:58:41.085Z,2.80
2023-03-10T19:00:16.372Z,2.80
2023-03-10T19:01:49.491Z,2.70
2023-03-10T19:03:23.242Z,2.70
2023-03-10T19:04:59.405Z,2.60
2023-03-10T19:06:33.538Z,2.60
2023-03-10T19:08:07.731Z,2.60
2023-03-10T19:09:41.103Z,2.60
2023-03-10T19:11:15.148Z,2.50
2023-03-10T19:12:49.677Z,2.50
2023-03-10T19:14:22.909Z,2.50
2023-03-10T19:15:58.728Z,2.50
2023-03-10T19:17:33.154Z,2.40
2023-03-10T19:19:06.658Z,2.40
2023-03-10T19:20:39.855Z,2.40
2023-03-10T19:22:13.567Z,2.40
2023-03-10T19:23:46.760Z,2.40
2023-03-10T19:25:21.116Z,2.30
2023-03-10T19:26:54.597Z,2.40
2023-03-10T19:28:29.812Z,2.30
2023-03-10T19:30:03.036Z,2.30
2023-03-10T19:31:36.432Z,2.20
2023-03-10T19:33:10.021Z,2.20
2023-03-10T19:34:43.117Z,2.20
2023-03-10T19:36:18.120Z,2.20
2023-03-10T19:37:51.253Z,2.20
2023-03-10T19:39:24.451Z,2.20
2023-03-10T19:40:57.680Z,2.20
2023-03-10T19:42:30.957Z,2.20
2023-03-10T19:44:05.631Z,2.20
2023-03-10T19:45:38.820Z,2.10
2023-03-10T19:47:12.411Z,2.10
2023-03-10T19:48:46.188Z,2.10
2023-03-10T19:50:20.304Z,2.10
2023-03-10T19:51:53.921Z,2.10
2023-03-10T19:53:30.433Z,2.10
2023-03-10T19:55:03.549Z,2.10
2023-03-10T19:56:36.672Z,2.10
2023-03-10T19:58:09.881Z,2.10
2023-03-10T19:59:44.566Z,2.10
2023-03-10T20:01:22.635Z,2.00
2023-03-10T20:02:56.684Z,2.00
2023-03-10T20:04:34.596Z,2.00
2023-03-10T20:06:08.020Z,2.00
2023-03-10T20:07:41.952Z,2.00
2023-03-10T20:09:15.102Z,2.00
2023-03-10T20:10:48.247Z,2.00
2023-03-10T20:12:21.778Z,2.00
2023-03-10T20:13:55.020Z,2.00
2023-03-10T20:15:29.852Z,2.00
2023-03-10T20:17:03.094Z,2.00
2023-03-10T20:18:36.236Z,2.00
2023-03-10T20:20:12.250Z,2.00
2023-03-10T20:21:45.798Z,2.00
2023-03-10T20:23:19.182Z,2.00
2023-03-10T20:24:52.909Z,1.90
2023-03-10T20:26:26.190Z,1.90
2023-03-10T20:27:59.345Z,1.90
2023-03-10T20:29:32.853Z,1.90
2023-03-10T20:31:07.495Z,1.90
2023-03-10T20:32:41.160Z,1.90
2023-03-10T20:34:22.085Z,1.90
2023-03-10T20:35:55.968Z,1.90
2023-03-10T20:37:29.154Z,1.90
2023-03-10T20:39:02.497Z,1.90
2023-03-10T20:40:38.302Z,1.90
2023-03-10T20:42:11.505Z,1.90
2023-03-10T20:43:45.510Z,1.90
2023-03-10T20:45:19.494Z,1.90
2023-03-10T20:46:54.105Z,1.90
2023-03-10T20:48:27.479Z,1.90
2023-03-10T20:50:03.156Z,1.90
2023-03-10T20:51:37.981Z,1.90
2023-03-10T20:53:12.482Z,1.90
2023-03-10T20:54:45.722Z,1.90
2023-03-10T20:56:19.316Z,1.90
2023-03-10T20:57:55.937Z,1.90
2023-03-10T20:59:29.429Z,1.90
2023-03-10T21:01:02.883Z,1.90
2023-03-10T21:02:37.358Z,1.90
2023-03-10T21:04:10.595Z,1.90
2023-03-10T21:05:43.044Z,1.90
2023-03-10T21:07:18.701Z,1.90
2023-03-10T21:08:52.278Z,1.90
2023-03-10T21:10:26.522Z,1.90
2023-03-10T21:11:59.653Z,1.80
2023-03-10T21:13:32.815Z,1.80
2023-03-10T21:15:07.314Z,1.80